createdAt,value
2018-01-21T00:00:36.747Z,1003.91
2018-01-21T00:01:45.586Z,1003.98
2018-01-21T00:02:54.833Z,1003.89
2018-01-21T00:04:03.661Z,1003.95
2018-01-21T00:05:12.486Z,1004.01
2018-01-21T00:06:21.313Z,1003.95
2018-01-21T00:07:30.411Z,1004.04
2018-01-21T00:08:39.385Z,1004.02
2018-01-21T00:09:48.212Z,1004.02
2018-01-21T00:10:57.036Z,1004
2018-01-21T00:12:05.861Z,1004.05
2018-01-21T00:13:14.686Z,1004.06
2018-01-21T00:14:23.562Z,1004.02
2018-01-21T00:15:32.390Z,1004.04
2018-01-21T00:16:41.218Z,1004.08
2018-01-21T00:17:50.043Z,1004.09
2018-01-21T00:18:58.870Z,1004.14
2018-01-21T00:20:07.748Z,1004.11
2018-01-21T00:21:16.572Z,1004.1
2018-01-21T00:22:25.400Z,1004.13
2018-01-21T00:23:34.227Z,1004.13
2018-01-21T00:24:43.325Z,1004.15
2018-01-21T00:25:52.249Z,1004.16
2018-01-21T00:27:01.075Z,1004.15
2018-01-21T00:28:09.902Z,1004.2
2018-01-21T00:29:18.733Z,1004.21
2018-01-21T00:30:27.556Z,1004.21
2018-01-21T00:31:36.581Z,1004.26
2018-01-21T00:32:45.408Z,1004.26
2018-01-21T00:33:54.234Z,1004.32
2018-01-21T00:35:03.066Z,1004.36
2018-01-21T00:36:12.166Z,1004.37
2018-01-21T00:37:20.992Z,1004.39
2018-01-21T00:38:29.819Z,1004.38
2018-01-21T00:39:38.646Z,1004.4
2018-01-21T00:40:47.749Z,1004.4
2018-01-21T00:41:56.577Z,1004.4
2018-01-21T00:43:05.877Z,1004.48
2018-01-21T00:44:14.703Z,1004.49
2018-01-21T00:45:23.528Z,1004.51
2018-01-21T00:46:32.356Z,1004.52
2018-01-21T00:47:41.456Z,1004.59
2018-01-21T00:48:50.532Z,1004.59
2018-01-21T00:49:59.357Z,1004.58
2018-01-21T00:51:08.184Z,1004.61
2018-01-21T00:52:17.290Z,1004.64
2018-01-21T00:53:26.117Z,1004.61
2018-01-21T00:54:35.344Z,1004.64
2018-01-21T00:55:44.170Z,1004.67
2018-01-21T00:56:52.996Z,1004.67
2018-01-21T00:58:01.824Z,1004.66
2018-01-21T00:59:11.193Z,1004.67
2018-01-21T01:00:20.169Z,1004.69
2018-01-21T01:01:28.995Z,1004.78
2018-01-21T01:02:38.095Z,1004.7
2018-01-21T01:03:46.923Z,1004.77
2018-01-21T01:04:55.749Z,1004.79
2018-01-21T01:06:04.725Z,1004.8
2018-01-21T01:07:13.549Z,1004.8
2018-01-21T01:08:22.376Z,1004.85
2018-01-21T01:09:31.201Z,1004.87
2018-01-21T01:10:40.028Z,1004.86
2018-01-21T01:11:48.954Z,1004.89
2018-01-21T01:12:57.779Z,1004.93
2018-01-21T01:14:06.603Z,1004.96
2018-01-21T01:15:15.429Z,1004.99
2018-01-21T01:16:24.256Z,1005
2018-01-21T01:17:33.081Z,1005.01
2018-01-21T01:18:41.907Z,1005.02
2018-01-21T01:19:50.732Z,1005.04
2018-01-21T01:20:59.560Z,1005.11
2018-01-21T01:22:08.386Z,1005.11
2018-01-21T01:23:17.312Z,1005.11
2018-01-21T01:24:26.139Z,1005.14
2018-01-21T01:25:34.967Z,1005.14
2018-01-21T01:26:43.794Z,1005.15
2018-01-21T01:27:52.621Z,1005.21
2018-01-21T01:29:01.552Z,1005.22
2018-01-21T01:30:10.644Z,1005.22
2018-01-21T01:31:19.469Z,1005.28
2018-01-21T01:32:28.295Z,1005.29
2018-01-21T01:33:37.397Z,1005.32
2018-01-21T01:34:46.273Z,1005.33
2018-01-21T01:35:55.098Z,1005.37
2018-01-21T01:37:03.926Z,1005.36
2018-01-21T01:38:12.750Z,1005.43
2018-01-21T01:39:21.849Z,1005.43
2018-01-21T01:40:30.995Z,1005.45
2018-01-21T01:41:39.822Z,1005.48
2018-01-21T01:42:48.649Z,1005.52
2018-01-21T01:43:57.764Z,1005.58
2018-01-21T01:45:06.591Z,1005.58
2018-01-21T01:46:15.515Z,1005.6
2018-01-21T01:47:24.342Z,1005.59
2018-01-21T01:48:33.167Z,1005.6
2018-01-21T01:49:41.995Z,1005.64
2018-01-21T01:50:51.095Z,1005.61
2018-01-21T01:52:00.295Z,1005.63
2018-01-21T01:53:09.123Z,1005.68
2018-01-21T01:54:17.946Z,1005.66
2018-01-21T01:55:26.775Z,1005.67
2018-01-21T01:56:35.601Z,1005.71
2018-01-21T01:57:44.578Z,1005.7
2018-01-21T01:58:54.359Z,1005.76
2018-01-21T02:00:03.460Z,1005.75
2018-01-21T02:01:12.285Z,1005.8
2018-01-21T02:02:21.112Z,1005.85
2018-01-21T02:03:29.938Z,1005.82
2018-01-21T02:04:38.764Z,1005.83
2018-01-21T02:05:47.589Z,1005.86
2018-01-21T02:06:56.415Z,1005.87
2018-01-21T02:08:05.243Z,1005.89
2018-01-21T02:09:14.320Z,1005.93
2018-01-21T02:10:23.145Z,1005.93
2018-01-21T02:11:31.971Z,1005.93
2018-01-21T02:12:40.798Z,1005.92
2018-01-21T02:13:49.626Z,1005.93
2018-01-21T02:14:58.753Z,1005.98
2018-01-21T02:16:07.581Z,1005.96
2018-01-21T02:17:16.407Z,1005.97
2018-01-21T02:18:25.233Z,1006.05
2018-01-21T02:19:34.060Z,1006.05
2018-01-21T02:20:43.136Z,1006.03
2018-01-21T02:21:51.963Z,1006.08
2018-01-21T02:23:00.789Z,1006.07
2018-01-21T02:24:09.893Z,1006.12
2018-01-21T02:25:18.717Z,1006.08
2018-01-21T02:26:28.120Z,1006.1
2018-01-21T02:27:36.947Z,1006.1
2018-01-21T02:28:45.772Z,1006.09
2018-01-21T02:29:54.599Z,1006.14
2018-01-21T02:31:03.430Z,1006.1
2018-01-21T02:32:12.407Z,1006.09
2018-01-21T02:33:21.235Z,1006.12
2018-01-21T02:34:30.060Z,1006.13
2018-01-21T02:35:39.165Z,1006.17
2018-01-21T02:36:48.268Z,1006.17
2018-01-21T02:37:57.369Z,1006.16
2018-01-21T02:39:06.471Z,1006.2
2018-01-21T02:40:15.297Z,1006.22
2018-01-21T02:41:24.124Z,1006.23
2018-01-21T02:42:32.956Z,1006.25
2018-01-21T02:43:42.028Z,1006.26
2018-01-21T02:44:50.857Z,1006.26
2018-01-21T02:45:59.682Z,1006.29
2018-01-21T02:47:08.509Z,1006.27
2018-01-21T02:48:17.612Z,1006.31
2018-01-21T02:49:26.439Z,1006.37
2018-01-21T02:50:35.540Z,1006.37
2018-01-21T02:51:44.372Z,1006.38
2018-01-21T02:52:53.198Z,1006.41
2018-01-21T02:54:02.311Z,1006.43
2018-01-21T02:55:11.244Z,1006.42
2018-01-21T02:56:20.347Z,1006.45
2018-01-21T02:57:29.170Z,1006.45
2018-01-21T02:58:37.997Z,1006.49
2018-01-21T02:59:46.823Z,1006.44
2018-01-21T03:00:55.649Z,1006.47
2018-01-21T03:02:04.476Z,1006.53
2018-01-21T03:03:13.302Z,1006.49
2018-01-21T03:04:22.130Z,1006.55
2018-01-21T03:05:30.956Z,1006.57
2018-01-21T03:06:40.058Z,1006.55
2018-01-21T03:07:48.886Z,1006.56
2018-01-21T03:08:57.711Z,1006.58
2018-01-21T03:10:06.810Z,1006.62
2018-01-21T03:11:15.637Z,1006.63
2018-01-21T03:12:24.563Z,1006.65
2018-01-21T03:13:33.391Z,1006.68
2018-01-21T03:14:42.491Z,1006.72
2018-01-21T03:15:51.317Z,1006.71
2018-01-21T03:17:00.143Z,1006.75
2018-01-21T03:18:09.395Z,1006.76
2018-01-21T03:19:18.224Z,1006.78
2018-01-21T03:20:27.051Z,1006.83
2018-01-21T03:21:36.151Z,1006.84
2018-01-21T03:22:44.977Z,1006.86
2018-01-21T03:23:53.955Z,1006.86
2018-01-21T03:25:02.784Z,1006.9
2018-01-21T03:26:11.610Z,1006.93
2018-01-21T03:27:20.437Z,1006.96
2018-01-21T03:28:29.264Z,1007.04
2018-01-21T03:29:38.091Z,1007.1
2018-01-21T03:30:46.918Z,1007.11
2018-01-21T03:31:55.742Z,1007.12
2018-01-21T03:33:04.570Z,1007.17
2018-01-21T03:34:13.401Z,1007.19
2018-01-21T03:35:22.480Z,1007.2
2018-01-21T03:36:31.307Z,1007.19
2018-01-21T03:37:40.134Z,1007.22
2018-01-21T03:38:48.962Z,1007.26
2018-01-21T03:39:57.791Z,1007.23
2018-01-21T03:41:06.618Z,1007.28
2018-01-21T03:42:15.444Z,1007.29
2018-01-21T03:43:24.272Z,1007.32
2018-01-21T03:44:33.099Z,1007.31
2018-01-21T03:45:41.925Z,1007.35
2018-01-21T03:46:50.800Z,1007.29
2018-01-21T03:47:59.628Z,1007.37
2018-01-21T03:49:08.455Z,1007.35
2018-01-21T03:50:17.281Z,1007.4
2018-01-21T03:51:26.108Z,1007.42
2018-01-21T03:52:34.935Z,1007.43
2018-01-21T03:53:43.761Z,1007.48
2018-01-21T03:54:52.590Z,1007.49
2018-01-21T03:56:01.421Z,1007.5
2018-01-21T03:57:10.243Z,1007.53
2018-01-21T03:58:19.640Z,1007.62
2018-01-21T03:59:28.471Z,1007.59
2018-01-21T04:00:37.571Z,1007.62
2018-01-21T04:01:46.396Z,1007.64
2018-01-21T04:02:55.498Z,1007.65
2018-01-21T04:04:04.372Z,1007.71
2018-01-21T04:05:13.198Z,1007.69
2018-01-21T04:06:22.031Z,1007.68
2018-01-21T04:07:31.127Z,1007.76
2018-01-21T04:08:39.952Z,1007.73
2018-01-21T04:09:48.930Z,1007.8
2018-01-21T04:10:57.756Z,1007.78
2018-01-21T04:12:06.859Z,1007.78
2018-01-21T04:13:16.228Z,1007.83
2018-01-21T04:14:25.053Z,1007.86
2018-01-21T04:15:33.979Z,1007.87
2018-01-21T04:16:42.805Z,1007.87
2018-01-21T04:17:51.634Z,1007.9
2018-01-21T04:19:00.462Z,1007.92
2018-01-21T04:20:09.289Z,1007.96
2018-01-21T04:21:18.417Z,1007.94
2018-01-21T04:22:27.245Z,1007.97
2018-01-21T04:23:36.072Z,1008
2018-01-21T04:24:44.896Z,1008.05
2018-01-21T04:25:53.723Z,1008.09
2018-01-21T04:27:02.803Z,1008.07
2018-01-21T04:28:11.630Z,1008.07
2018-01-21T04:29:20.456Z,1008.12
2018-01-21T04:30:29.286Z,1008.17
2018-01-21T04:31:38.388Z,1008.13
2018-01-21T04:32:47.514Z,1008.2
2018-01-21T04:33:56.342Z,1008.23
2018-01-21T04:35:05.173Z,1008.34
2018-01-21T04:36:14.546Z,1008.32
2018-01-21T04:37:23.644Z,1008.33
2018-01-21T04:38:32.622Z,1008.31
2018-01-21T04:39:41.450Z,1008.35
2018-01-21T04:40:50.280Z,1008.37
2018-01-21T04:41:59.105Z,1008.39
2018-01-21T04:43:08.207Z,1008.39
2018-01-21T04:44:17.334Z,1008.4
2018-01-21T04:45:26.161Z,1008.41
2018-01-21T04:46:34.988Z,1008.39
2018-01-21T04:47:43.815Z,1008.41
2018-01-21T04:48:52.914Z,1008.42
2018-01-21T04:50:01.891Z,1008.44
2018-01-21T04:51:10.720Z,1008.45
2018-01-21T04:52:19.545Z,1008.45
2018-01-21T04:53:28.372Z,1008.48
2018-01-21T04:54:37.201Z,1008.55
2018-01-21T04:55:46.452Z,1008.56
2018-01-21T04:56:55.279Z,1008.59
2018-01-21T04:58:04.106Z,1008.57
2018-01-21T04:59:12.933Z,1008.56
2018-01-21T05:00:21.759Z,1008.59
2018-01-21T05:01:30.585Z,1008.59
2018-01-21T05:02:39.411Z,1008.59
2018-01-21T05:03:48.239Z,1008.61
2018-01-21T05:04:57.066Z,1008.68
2018-01-21T05:06:05.891Z,1008.71
2018-01-21T05:07:14.820Z,1008.76
2018-01-21T05:08:23.651Z,1008.72
2018-01-21T05:09:32.475Z,1008.8
2018-01-21T05:10:41.304Z,1008.83
2018-01-21T05:11:50.128Z,1008.8
2018-01-21T05:12:59.058Z,1008.88
2018-01-21T05:14:07.891Z,1008.86
2018-01-21T05:15:16.711Z,1008.94
2018-01-21T05:16:25.541Z,1008.88
2018-01-21T05:17:34.368Z,1008.85
2018-01-21T05:18:43.495Z,1008.86
2018-01-21T05:19:52.320Z,1008.87
2018-01-21T05:21:01.150Z,1008.85
2018-01-21T05:22:09.978Z,1008.92
2018-01-21T05:23:19.082Z,1008.93
2018-01-21T05:24:28.158Z,1008.96
2018-01-21T05:25:36.988Z,1009.03
2018-01-21T05:26:45.815Z,1009.01
2018-01-21T05:27:54.643Z,1009.09
2018-01-21T05:29:03.471Z,1009.12
2018-01-21T05:30:12.298Z,1009.12
2018-01-21T05:31:21.124Z,1009.13
2018-01-21T05:32:29.953Z,1009.16
2018-01-21T05:33:38.779Z,1009.23
2018-01-21T05:34:47.608Z,1009.2
2018-01-21T05:35:56.584Z,1009.24
2018-01-21T05:37:05.682Z,1009.24
2018-01-21T05:38:14.510Z,1009.3
2018-01-21T05:39:23.339Z,1009.29
2018-01-21T05:40:32.164Z,1009.31
2018-01-21T05:41:41.191Z,1009.28
2018-01-21T05:42:50.017Z,1009.33
2018-01-21T05:43:58.842Z,1009.29
2018-01-21T05:45:07.669Z,1009.33
2018-01-21T05:46:16.498Z,1009.32
2018-01-21T05:47:25.323Z,1009.3
2018-01-21T05:48:34.150Z,1009.3
2018-01-21T05:49:42.976Z,1009.31
2018-01-21T05:50:51.805Z,1009.31
2018-01-21T05:52:00.633Z,1009.32
2018-01-21T05:53:09.761Z,1009.32
2018-01-21T05:54:18.585Z,1009.34
2018-01-21T05:55:27.690Z,1009.38
2018-01-21T05:56:36.517Z,1009.38
2018-01-21T05:57:45.621Z,1009.4
2018-01-21T05:58:54.822Z,1009.43
2018-01-21T06:00:03.650Z,1009.44
2018-01-21T06:01:12.477Z,1009.43
2018-01-21T06:02:21.358Z,1009.52
2018-01-21T06:03:30.131Z,1009.52
2018-01-21T06:04:38.959Z,1009.6
2018-01-21T06:05:47.786Z,1009.64
2018-01-21T06:06:56.613Z,1009.61
2018-01-21T06:08:05.439Z,1009.65
2018-01-21T06:09:14.266Z,1009.6
2018-01-21T06:10:23.244Z,1009.68
2018-01-21T06:11:32.352Z,1009.7
2018-01-21T06:12:41.448Z,1009.74
2018-01-21T06:13:50.274Z,1009.75
2018-01-21T06:14:59.100Z,1009.79
2018-01-21T06:16:07.979Z,1009.75
2018-01-21T06:17:16.809Z,1009.81
2018-01-21T06:18:25.631Z,1009.84
2018-01-21T06:19:34.730Z,1009.87
2018-01-21T06:20:43.557Z,1009.88
2018-01-21T06:21:52.434Z,1009.94
2018-01-21T06:23:01.261Z,1009.96
2018-01-21T06:24:10.087Z,1009.96
2018-01-21T06:25:18.914Z,1009.98
2018-01-21T06:26:27.741Z,1009.98
2018-01-21T06:27:36.817Z,1009.99
2018-01-21T06:28:45.644Z,1009.98
2018-01-21T06:29:54.471Z,1010.01
2018-01-21T06:31:03.298Z,1010.01
2018-01-21T06:32:12.126Z,1010
2018-01-21T06:33:21.326Z,1010.08
2018-01-21T06:34:30.155Z,1010.12
2018-01-21T06:35:38.978Z,1010.1
2018-01-21T06:36:47.803Z,1010.15
2018-01-21T06:37:56.629Z,1010.17
2018-01-21T06:39:05.759Z,1010.2
2018-01-21T06:40:14.585Z,1010.25
2018-01-21T06:41:23.413Z,1010.27
2018-01-21T06:42:32.241Z,1010.33
2018-01-21T06:43:41.066Z,1010.35
2018-01-21T06:44:49.994Z,1010.39
2018-01-21T06:45:58.820Z,1010.42
2018-01-21T06:47:07.648Z,1010.47
2018-01-21T06:48:16.477Z,1010.47
2018-01-21T06:49:25.300Z,1010.54
2018-01-21T06:50:34.227Z,1010.55
2018-01-21T06:51:43.054Z,1010.56
2018-01-21T06:52:52.150Z,1010.6
2018-01-21T06:54:00.976Z,1010.61
2018-01-21T06:55:09.831Z,1010.63
2018-01-21T06:56:18.884Z,1010.65
2018-01-21T06:57:27.710Z,1010.69
2018-01-21T06:58:36.538Z,1010.72
2018-01-21T06:59:45.364Z,1010.74
2018-01-21T07:00:54.207Z,1010.74
2018-01-21T07:02:03.343Z,1010.75
2018-01-21T07:03:12.319Z,1010.78
2018-01-21T07:04:21.146Z,1010.81
2018-01-21T07:05:29.973Z,1010.82
2018-01-21T07:06:39.075Z,1010.84
2018-01-21T07:07:48.302Z,1010.88
2018-01-21T07:08:57.128Z,1010.9
2018-01-21T07:10:05.954Z,1010.94
2018-01-21T07:11:14.782Z,1010.96
2018-01-21T07:12:23.610Z,1010.97
2018-01-21T07:13:32.839Z,1010.96
2018-01-21T07:14:41.665Z,1011
2018-01-21T07:15:50.491Z,1011.06
2018-01-21T07:16:59.317Z,1011.07
2018-01-21T07:18:08.421Z,1011.12
2018-01-21T07:19:17.397Z,1011.2
2018-01-21T07:20:26.223Z,1011.13
2018-01-21T07:21:35.049Z,1011.21
2018-01-21T07:22:43.876Z,1011.17
2018-01-21T07:23:52.702Z,1011.22
2018-01-21T07:25:01.581Z,1011.26
2018-01-21T07:26:10.408Z,1011.33
2018-01-21T07:27:19.504Z,1011.33
2018-01-21T07:28:28.610Z,1011.34
2018-01-21T07:29:37.437Z,1011.35
2018-01-21T07:30:46.318Z,1011.38
2018-01-21T07:31:55.144Z,1011.38
2018-01-21T07:33:03.972Z,1011.41
2018-01-21T07:34:12.799Z,1011.5
2018-01-21T07:35:21.627Z,1011.53
2018-01-21T07:36:30.503Z,1011.58
2018-01-21T07:37:39.328Z,1011.59
2018-01-21T07:38:48.156Z,1011.58
2018-01-21T07:39:56.982Z,1011.65
2018-01-21T07:41:05.809Z,1011.64
2018-01-21T07:42:15.010Z,1011.65
2018-01-21T07:43:23.837Z,1011.67
2018-01-21T07:44:32.672Z,1011.61
2018-01-21T07:45:41.499Z,1011.68
2018-01-21T07:46:50.603Z,1011.71
2018-01-21T07:47:59.578Z,1011.67
2018-01-21T07:49:08.405Z,1011.73
2018-01-21T07:50:17.233Z,1011.8
2018-01-21T07:51:26.064Z,1011.85
2018-01-21T07:52:34.897Z,1011.88
2018-01-21T07:53:44.025Z,1011.92
2018-01-21T07:54:52.858Z,1011.93
2018-01-21T07:56:01.680Z,1011.93
2018-01-21T07:57:10.784Z,1011.99
2018-01-21T07:58:19.609Z,1012
2018-01-21T07:59:28.436Z,1012.06
2018-01-21T08:00:37.264Z,1012.03
2018-01-21T08:01:46.090Z,1012.07
2018-01-21T08:02:54.917Z,1012.07
2018-01-21T08:04:03.742Z,1012.11
2018-01-21T08:05:12.619Z,1012.15
2018-01-21T08:06:21.722Z,1012.18
2018-01-21T08:07:30.550Z,1012.14
2018-01-21T08:08:39.650Z,1012.16
2018-01-21T08:09:48.479Z,1012.21
2018-01-21T08:10:57.413Z,1012.23
2018-01-21T08:12:06.239Z,1012.22
2018-01-21T08:13:15.069Z,1012.25
2018-01-21T08:14:24.169Z,1012.25
2018-01-21T08:15:32.995Z,1012.28
2018-01-21T08:16:41.821Z,1012.31
2018-01-21T08:17:50.648Z,1012.39
2018-01-21T08:18:59.475Z,1012.34
2018-01-21T08:20:08.302Z,1012.4
2018-01-21T08:21:17.130Z,1012.42
2018-01-21T08:22:25.959Z,1012.46
2018-01-21T08:23:34.788Z,1012.46
2018-01-21T08:24:43.889Z,1012.51
2018-01-21T08:25:52.716Z,1012.48
2018-01-21T08:27:01.545Z,1012.56
2018-01-21T08:28:10.749Z,1012.55
2018-01-21T08:29:19.523Z,1012.65
2018-01-21T08:30:28.351Z,1012.63
2018-01-21T08:31:37.454Z,1012.64
2018-01-21T08:32:46.280Z,1012.66
2018-01-21T08:33:55.357Z,1012.69
2018-01-21T08:35:04.188Z,1012.71
2018-01-21T08:36:13.287Z,1012.7
2018-01-21T08:37:22.114Z,1012.73
2018-01-21T08:38:30.940Z,1012.75
2018-01-21T08:39:39.769Z,1012.7
2018-01-21T08:40:48.594Z,1012.77
2018-01-21T08:41:57.421Z,1012.79
2018-01-21T08:43:06.256Z,1012.83
2018-01-21T08:44:15.085Z,1012.84
2018-01-21T08:45:23.911Z,1012.88
2018-01-21T08:46:33.011Z,1012.92
2018-01-21T08:47:41.841Z,1012.92
2018-01-21T08:48:50.670Z,1012.97
2018-01-21T08:49:59.497Z,1013.02
2018-01-21T08:51:08.426Z,1012.92
2018-01-21T08:52:17.256Z,1012.98
2018-01-21T08:53:26.084Z,1012.97
2018-01-21T08:54:34.910Z,1012.93
2018-01-21T08:55:43.739Z,1012.99
2018-01-21T08:56:52.667Z,1013
2018-01-21T08:58:01.494Z,1012.96
2018-01-21T08:59:10.325Z,1013.03
2018-01-21T09:00:19.160Z,1013.02
2018-01-21T09:01:27.981Z,1013.03
2018-01-21T09:02:36.908Z,1012.99
2018-01-21T09:03:45.739Z,1013.07
2018-01-21T09:04:54.566Z,1013.05
2018-01-21T09:06:03.397Z,1013.06
2018-01-21T09:07:12.227Z,1013.11
2018-01-21T09:08:21.527Z,1013.1
2018-01-21T09:09:30.355Z,1013.11
2018-01-21T09:10:39.184Z,1013.14
2018-01-21T09:11:48.013Z,1013.08
2018-01-21T09:12:56.838Z,1013.11
2018-01-21T09:14:05.669Z,1013.13
2018-01-21T09:15:14.496Z,1013.15
2018-01-21T09:16:23.596Z,1013.16
2018-01-21T09:17:32.425Z,1013.19
2018-01-21T09:18:41.254Z,1013.21
2018-01-21T09:19:50.333Z,1013.27
2018-01-21T09:20:59.163Z,1013.31
2018-01-21T09:22:08.267Z,1013.3
2018-01-21T09:23:17.095Z,1013.37
2018-01-21T09:24:25.923Z,1013.39
2018-01-21T09:25:34.752Z,1013.38
2018-01-21T09:26:43.581Z,1013.42
2018-01-21T09:27:52.408Z,1013.44
2018-01-21T09:29:01.237Z,1013.48
2018-01-21T09:30:10.068Z,1013.47
2018-01-21T09:31:19.322Z,1013.51
2018-01-21T09:32:28.152Z,1013.56
2018-01-21T09:33:36.979Z,1013.54
2018-01-21T09:34:45.806Z,1013.56
2018-01-21T09:35:54.635Z,1013.6
2018-01-21T09:37:03.462Z,1013.57
2018-01-21T09:38:12.293Z,1013.59
2018-01-21T09:39:21.120Z,1013.66
2018-01-21T09:40:29.948Z,1013.64
2018-01-21T09:41:38.778Z,1013.68
2018-01-21T09:42:47.608Z,1013.66
2018-01-21T09:43:56.437Z,1013.63
2018-01-21T09:45:05.265Z,1013.69
2018-01-21T09:46:14.093Z,1013.65
2018-01-21T09:47:22.921Z,1013.7
2018-01-21T09:48:32.050Z,1013.72
2018-01-21T09:49:41.156Z,1013.67
2018-01-21T09:50:49.987Z,1013.71
2018-01-21T09:51:58.817Z,1013.71
2018-01-21T09:53:07.646Z,1013.74
2018-01-21T09:54:16.623Z,1013.78
2018-01-21T09:55:25.453Z,1013.81
2018-01-21T09:56:34.283Z,1013.87
2018-01-21T09:57:43.115Z,1013.88
2018-01-21T09:58:51.945Z,1013.92
2018-01-21T10:00:01.105Z,1013.95
2018-01-21T10:01:09.932Z,1013.95
2018-01-21T10:02:18.761Z,1013.94
2018-01-21T10:03:27.594Z,1013.96
2018-01-21T10:04:36.420Z,1014.06
2018-01-21T10:05:45.348Z,1014.11
2018-01-21T10:06:54.452Z,1014.11
2018-01-21T10:08:03.286Z,1014.16
2018-01-21T10:09:12.114Z,1014.17
2018-01-21T10:10:20.945Z,1014.2
2018-01-21T10:11:29.877Z,1014.21
2018-01-21T10:12:38.860Z,1014.25
2018-01-21T10:13:47.733Z,1014.3
2018-01-21T10:14:56.586Z,1014.29
2018-01-21T10:16:06.060Z,1014.27
2018-01-21T10:17:15.194Z,1014.3
2018-01-21T10:18:24.064Z,1014.3
2018-01-21T10:19:33.137Z,1014.31
2018-01-21T10:20:42.193Z,1014.31
2018-01-21T10:21:51.302Z,1014.34
2018-01-21T10:23:08.048Z,1014.35
2018-01-21T10:24:17.342Z,1014.34
2018-01-21T10:25:26.278Z,1014.31
2018-01-21T10:26:35.545Z,1014.38
2018-01-21T10:27:45.115Z,1014.41
2018-01-21T10:28:54.395Z,1014.41
2018-01-21T10:30:03.241Z,1014.42
2018-01-21T10:31:12.074Z,1014.46
2018-01-21T10:32:21.412Z,1014.42
2018-01-21T10:33:30.239Z,1014.45
2018-01-21T10:34:39.119Z,1014.53
2018-01-21T10:35:47.950Z,1014.57
2018-01-21T10:36:56.775Z,1014.53
2018-01-21T10:38:05.606Z,1014.53
2018-01-21T10:39:14.436Z,1014.52
2018-01-21T10:40:23.264Z,1014.55
2018-01-21T10:41:32.092Z,1014.61
2018-01-21T10:42:40.921Z,1014.64
2018-01-21T10:43:49.751Z,1014.6
2018-01-21T10:44:58.579Z,1014.63
2018-01-21T10:46:07.408Z,1014.63
2018-01-21T10:47:16.239Z,1014.67
2018-01-21T10:48:25.344Z,1014.68
2018-01-21T10:49:34.173Z,1014.72
2018-01-21T10:50:43.004Z,1014.72
2018-01-21T10:51:51.932Z,1014.73
2018-01-21T10:53:00.763Z,1014.75
2018-01-21T10:54:09.593Z,1014.73
2018-01-21T10:55:18.421Z,1014.77
2018-01-21T10:56:27.251Z,1014.8
2018-01-21T10:57:36.331Z,1014.84
2018-01-21T10:58:45.161Z,1014.83
2018-01-21T10:59:53.991Z,1014.85
2018-01-21T11:01:03.096Z,1014.88
2018-01-21T11:02:11.923Z,1014.87
2018-01-21T11:03:20.854Z,1014.87
2018-01-21T11:04:29.685Z,1014.89
2018-01-21T11:05:38.727Z,1014.87
2018-01-21T11:06:47.556Z,1014.9
2018-01-21T11:07:56.386Z,1014.87
2018-01-21T11:09:05.313Z,1014.84
2018-01-21T11:10:14.143Z,1014.92
2018-01-21T11:11:22.980Z,1014.9
2018-01-21T11:12:31.812Z,1014.86
2018-01-21T11:13:40.642Z,1014.89
2018-01-21T11:14:49.570Z,1014.93
2018-01-21T11:15:58.400Z,1014.9
2018-01-21T11:17:07.238Z,1014.95
2018-01-21T11:18:16.068Z,1014.95
2018-01-21T11:19:25.171Z,1014.98
2018-01-21T11:20:34.148Z,1014.98
2018-01-21T11:21:43.249Z,1015.06
2018-01-21T11:22:52.080Z,1015.1
2018-01-21T11:24:00.912Z,1015.15
2018-01-21T11:25:09.737Z,1015.19
2018-01-21T11:26:18.865Z,1015.16
2018-01-21T11:27:27.968Z,1015.15
2018-01-21T11:28:36.797Z,1015.15
2018-01-21T11:29:45.625Z,1015.22
2018-01-21T11:30:54.452Z,1015.2
2018-01-21T11:32:03.380Z,1015.23
2018-01-21T11:33:12.210Z,1015.2
2018-01-21T11:34:21.041Z,1015.19
2018-01-21T11:35:29.871Z,1015.24
2018-01-21T11:36:38.705Z,1015.25
2018-01-21T11:37:47.779Z,1015.25
2018-01-21T11:38:56.612Z,1015.25
2018-01-21T11:40:05.446Z,1015.23
2018-01-21T11:41:14.275Z,1015.23
2018-01-21T11:42:23.103Z,1015.2
2018-01-21T11:43:32.182Z,1015.21
2018-01-21T11:44:41.012Z,1015.17
2018-01-21T11:45:49.841Z,1015.1
2018-01-21T11:46:58.666Z,1015.06
2018-01-21T11:48:07.497Z,1015.08
2018-01-21T11:49:16.425Z,1015.01
2018-01-21T11:50:25.253Z,1015
2018-01-21T11:51:34.082Z,1015.07
2018-01-21T11:52:42.909Z,1015.05
2018-01-21T11:53:51.737Z,1015.03
2018-01-21T11:55:00.627Z,1015.04
2018-01-21T11:56:09.553Z,1015
2018-01-21T11:57:18.382Z,1015.02
2018-01-21T11:58:27.464Z,1015.02
2018-01-21T11:59:36.295Z,1015.06
2018-01-21T12:00:45.123Z,1015.09
2018-01-21T12:01:54.231Z,1015.13
2018-01-21T12:03:03.062Z,1015.15
2018-01-21T12:04:11.905Z,1015.17
2018-01-21T12:05:20.723Z,1015.2
2018-01-21T12:06:29.551Z,1015.19
2018-01-21T12:07:38.658Z,1015.19
2018-01-21T12:08:47.488Z,1015.18
2018-01-21T12:09:56.316Z,1015.2
2018-01-21T12:11:05.148Z,1015.22
2018-01-21T12:12:13.989Z,1015.25
2018-01-21T12:13:22.825Z,1015.26
2018-01-21T12:14:31.927Z,1015.23
2018-01-21T12:15:41.030Z,1015.18
2018-01-21T12:16:49.855Z,1015.24
2018-01-21T12:17:58.682Z,1015.22
2018-01-21T12:19:07.512Z,1015.22
2018-01-21T12:20:16.340Z,1015.25
2018-01-21T12:21:25.445Z,1015.21
2018-01-21T12:22:34.270Z,1015.2
2018-01-21T12:23:43.099Z,1015.2
2018-01-21T12:24:52.196Z,1015.2
2018-01-21T12:26:01.076Z,1015.24
2018-01-21T12:27:09.906Z,1015.27
2018-01-21T12:28:18.734Z,1015.22
2018-01-21T12:29:27.562Z,1015.24
2018-01-21T12:30:36.391Z,1015.25
2018-01-21T12:31:45.276Z,1015.24
2018-01-21T12:32:54.103Z,1015.28
2018-01-21T12:34:03.204Z,1015.34
2018-01-21T12:35:12.034Z,1015.4
2018-01-21T12:36:20.865Z,1015.36
2018-01-21T12:37:30.117Z,1015.43
2018-01-21T12:38:38.948Z,1015.38
2018-01-21T12:39:47.774Z,1015.43
2018-01-21T12:40:56.603Z,1015.45
2018-01-21T12:42:05.431Z,1015.41
2018-01-21T12:43:14.359Z,1015.43
2018-01-21T12:44:23.461Z,1015.44
2018-01-21T12:45:32.569Z,1015.44
2018-01-21T12:46:41.399Z,1015.44
2018-01-21T12:47:50.497Z,1015.46
2018-01-21T12:48:59.477Z,1015.46
2018-01-21T12:50:08.305Z,1015.51
2018-01-21T12:51:17.133Z,1015.54
2018-01-21T12:52:25.965Z,1015.51
2018-01-21T12:53:34.793Z,1015.55
2018-01-21T12:54:43.776Z,1015.52
2018-01-21T12:55:52.609Z,1015.56
2018-01-21T12:57:01.434Z,1015.6
2018-01-21T12:58:10.284Z,1015.57
2018-01-21T12:59:19.089Z,1015.59
2018-01-21T13:00:28.066Z,1015.61
2018-01-21T13:01:36.894Z,1015.63
2018-01-21T13:02:45.721Z,1015.65
2018-01-21T13:03:54.549Z,1015.64
2018-01-21T13:05:03.386Z,1015.66
2018-01-21T13:06:12.214Z,1015.72
2018-01-21T13:07:21.047Z,1015.73
2018-01-21T13:08:29.875Z,1015.76
2018-01-21T13:09:38.705Z,1015.73
2018-01-21T13:10:47.535Z,1015.75
2018-01-21T13:11:56.564Z,1015.77
2018-01-21T13:13:05.394Z,1015.8
2018-01-21T13:14:14.222Z,1015.78
2018-01-21T13:15:23.049Z,1015.77
2018-01-21T13:16:31.878Z,1015.73
2018-01-21T13:17:40.860Z,1015.71
2018-01-21T13:18:49.690Z,1015.72
2018-01-21T13:19:58.519Z,1015.79
2018-01-21T13:21:07.349Z,1015.77
2018-01-21T13:22:16.178Z,1015.77
2018-01-21T13:23:25.157Z,1015.82
2018-01-21T13:24:33.984Z,1015.87
2018-01-21T13:25:42.837Z,1015.86
2018-01-21T13:26:51.704Z,1015.89
2018-01-21T13:28:00.532Z,1015.91
2018-01-21T13:29:09.564Z,1015.88
2018-01-21T13:30:18.394Z,1015.92
2018-01-21T13:31:27.226Z,1015.93
2018-01-21T13:32:36.053Z,1015.94
2018-01-21T13:33:44.884Z,1015.89
2018-01-21T13:34:54.188Z,1015.92
2018-01-21T13:36:03.310Z,1015.96
2018-01-21T13:37:12.453Z,1015.9
2018-01-21T13:38:21.283Z,1015.9
2018-01-21T13:39:30.111Z,1015.88
2018-01-21T13:40:38.989Z,1015.88
2018-01-21T13:41:47.821Z,1015.9
2018-01-21T13:42:56.650Z,1015.89
2018-01-21T13:44:05.498Z,1015.93
2018-01-21T13:45:14.309Z,1015.94
2018-01-21T13:46:23.287Z,1015.99
2018-01-21T13:47:32.121Z,1015.99
2018-01-21T13:48:40.951Z,1016.02
2018-01-21T13:49:49.779Z,1015.99
2018-01-21T13:50:58.609Z,1016.01
2018-01-21T13:52:07.440Z,1016
2018-01-21T13:53:16.278Z,1016.05
2018-01-21T13:54:25.099Z,1016.03
2018-01-21T13:55:33.927Z,1016.05
2018-01-21T13:56:42.756Z,1016.12